Time;durP1;ratioP1;P1;durP2;ratioP2;P2;SDS_P1;SDS_P2;PMS_P1;PMS_P2;Temp;Humidity;BMP_temperature;BMP_pressure;BME280_temperature;BME280_humidity;BME280_pressure;Samples;Min_cycle;Max_cycle;Signal;HPM_P1;HPM_P2
2023/09/26 00:00:40;;;;;;;2.53;2.30;;;21.60;56.20;;;;;;5070345;28;20170;-68
2023/09/26 00:03:06;;;;;;;3.00;2.27;;;21.60;56.20;;;;;;5070311;28;20559;-67
2023/09/26 00:05:32;;;;;;;3.80;2.60;;;21.60;56.20;;;;;;5070642;28;20171;-67
2023/09/26 00:08:03;;;;;;;2.57;2.00;;;21.60;56.20;;;;;;5070337;28;20547;-69
2023/09/26 00:10:29;;;;;;;2.90;2.27;;;21.60;56.20;;;;;;5070360;28;20151;-67
2023/09/26 00:12:55;;;;;;;2.90;2.40;;;21.60;56.20;;;;;;5070387;28;20432;-68
2023/09/26 00:15:21;;;;;;;3.23;2.87;;;21.60;56.20;;;;;;5070186;28;20782;-69
2023/09/26 00:17:46;;;;;;;3.27;2.63;;;21.60;56.20;;;;;;5070119;28;20229;-67
2023/09/26 00:20:35;;;;;;;3.30;2.63;;;21.60;56.20;;;;;;5070011;28;20186;-69
2023/09/26 00:22:58;;;;;;;2.60;2.40;;;21.60;56.20;;;;;;5073388;28;20604;-68
2023/09/26 00:25:24;;;;;;;2.90;2.70;;;21.60;56.80;;;;;;5073791;28;20412;-68
2023/09/26 00:27:50;;;;;;;2.47;1.80;;;21.60;56.30;;;;;;5073806;28;20651;-67
2023/09/26 00:30:17;;;;;;;2.50;2.27;;;21.60;56.30;;;;;;5073675;28;20178;-69
2023/09/26 00:32:43;;;;;;;2.73;2.13;;;21.60;56.30;;;;;;5073624;28;20434;-68
2023/09/26 00:35:11;;;;;;;2.53;2.33;;;21.60;56.30;;;;;;5073614;28;20409;-67
2023/09/26 00:37:38;;;;;;;2.63;2.10;;;21.60;56.20;;;;;;5073407;28;20987;-68
2023/09/26 00:40:06;;;;;;;2.40;2.20;;;21.60;56.30;;;;;;5073528;28;20450;-68
2023/09/26 00:42:32;;;;;;;2.50;2.30;;;21.60;56.30;;;;;;5073428;28;20866;-67
2023/09/26 00:44:57;;;;;;;2.90;2.60;;;21.60;56.30;;;;;;5072128;28;20506;-69
2023/09/26 00:47:23;;;;;;;2.40;2.20;;;21.60;56.20;;;;;;5073179;28;20655;-66
2023/09/26 00:49:49;;;;;;;2.00;1.90;;;21.60;56.20;;;;;;5073371;28;20171;-68
2023/09/26 00:52:14;;;;;;;2.30;2.10;;;21.60;56.30;;;;;;5072440;28;20733;-67
2023/09/26 00:54:40;;;;;;;2.47;2.27;;;21.60;56.30;;;;;;5073309;28;20186;-67
2023/09/26 00:57:07;;;;;;;2.23;2.03;;;21.60;56.30;;;;;;5073218;28;20201;-67
2023/09/26 00:59:33;;;;;;;2.60;2.40;;;21.60;56.30;;;;;;5073243;28;21002;-67
2023/09/26 01:01:58;;;;;;;2.67;2.30;;;21.60;56.30;;;;;;5073123;28;20411;-68
2023/09/26 01:04:24;;;;;;;2.77;2.10;;;21.60;56.30;;;;;;5072143;28;20491;-68
2023/09/26 01:06:50;;;;;;;2.53;2.33;;;21.60;56.30;;;;;;5073077;28;20171;-68
2023/09/26 01:09:16;;;;;;;2.10;1.90;;;21.60;56.30;;;;;;5073307;28;20178;-69
2023/09/26 01:11:42;;;;;;;2.73;2.53;;;21.60;56.30;;;;;;5073037;28;20416;-67
2023/09/26 01:14:08;;;;;;;2.77;2.50;;;21.60;56.30;;;;;;5072906;28;20213;-67
2023/09/26 01:16:33;;;;;;;2.43;1.83;;;21.60;56.30;;;;;;5072760;28;20444;-68
2023/09/26 01:18:59;;;;;;;2.40;2.20;;;21.60;56.30;;;;;;5072932;28;20588;-67
2023/09/26 01:21:25;;;;;;;2.27;1.93;;;21.60;56.30;;;;;;5072709;28;20265;-68
2023/09/26 01:23:59;;;;;;;2.20;1.87;;;21.60;56.30;;;;;;5073011;28;20194;-66
2023/09/26 01:26:25;;;;;;;2.37;2.00;;;21.60;56.30;;;;;;5072888;28;20166;-68
2023/09/26 01:28:51;;;;;;;3.03;2.60;;;21.60;56.30;;;;;;5072735;28;20444;-68
2023/09/26 01:31:17;;;;;;;3.00;2.30;;;21.60;56.30;;;;;;5072622;28;20443;-67
2023/09/26 01:33:42;;;;;;;2.43;2.23;;;21.60;56.90;;;;;;5072282;28;20198;-68
2023/09/26 01:36:08;;;;;;;2.23;2.03;;;21.60;56.30;;;;;;5072517;28;20460;-67
2023/09/26 01:38:34;;;;;;;2.60;2.40;;;21.60;56.40;;;;;;5072486;28;20579;-68
2023/09/26 01:40:59;;;;;;;2.80;2.60;;;21.60;56.30;;;;;;5071478;28;20709;-66
2023/09/26 01:43:25;;;;;;;2.23;2.03;;;21.60;56.30;;;;;;5072233;28;20178;-69
2023/09/26 01:45:51;;;;;;;2.50;1.97;;;21.60;56.30;;;;;;5071233;28;20163;-67
2023/09/26 01:48:17;;;;;;;2.67;2.47;;;21.60;56.30;;;;;;5072105;28;20617;-68
2023/09/26 01:50:43;;;;;;;2.87;2.13;;;21.60;56.30;;;;;;5071563;28;20495;-69
2023/09/26 01:53:10;;;;;;;2.30;2.10;;;21.60;56.30;;;;;;5072034;28;20212;-67
2023/09/26 01:55:38;;;;;;;3.13;2.20;;;21.60;56.30;;;;;;5072101;28;20209;-67
2023/09/26 01:58:04;;;;;;;2.40;2.20;;;21.60;56.30;;;;;;5072137;28;20491;-68
2023/09/26 02:00:29;;;;;;;3.07;2.70;;;21.60;56.30;;;;;;5072285;28;20989;-66
2023/09/26 02:02:55;;;;;;;2.53;2.33;;;21.60;56.30;;;;;;5071916;28;20218;-68
2023/09/26 02:05:21;;;;;;;2.53;2.33;;;21.60;56.40;;;;;;5071940;28;20170;-67
2023/09/26 02:07:48;;;;;;;1.97;1.80;;;21.50;56.30;;;;;;5072149;28;20695;-66
2023/09/26 02:10:14;;;;;;;2.20;2.00;;;21.60;56.30;;;;;;5071779;28;20526;-67
2023/09/26 02:12:42;;;;;;;4.10;1.93;;;21.50;56.30;;;;;;5071650;28;20508;-69
2023/09/26 02:15:09;;;;;;;2.13;1.83;;;21.60;56.30;;;;;;5071720;28;20404;-66
2023/09/26 02:17:39;;;;;;;2.60;2.13;;;21.60;56.40;;;;;;5071554;28;20459;-67
2023/09/26 02:20:12;;;;;;;3.77;2.20;;;21.50;56.30;;;;;;5071411;28;20420;-67
2023/09/26 02:22:39;;;;;;;2.50;2.13;;;21.60;56.40;;;;;;5077737;28;20431;-67
2023/09/26 02:25:05;;;;;;;2.07;1.87;;;21.60;56.40;;;;;;5091707;28;20415;-68
2023/09/26 02:27:31;;;;;;;2.20;2.00;;;21.50;56.30;;;;;;5091728;28;20411;-68
2023/09/26 02:29:56;;;;;;;2.60;2.00;;;21.60;56.30;;;;;;5091708;28;20842;-67
2023/09/26 02:32:22;;;;;;;2.10;1.83;;;21.60;56.40;;;;;;5091587;28;20431;-68
2023/09/26 02:34:48;;;;;;;1.90;1.80;;;21.60;56.40;;;;;;5091648;28;20203;-67
2023/09/26 02:37:13;;;;;;;2.20;2.00;;;21.60;56.40;;;;;;5091477;28;20246;-68
2023/09/26 02:39:39;;;;;;;2.43;2.23;;;21.50;56.30;;;;;;5091525;28;20201;-68
2023/09/26 02:42:04;;;;;;;2.30;2.07;;;21.50;56.30;;;;;;5091486;28;20173;-67
2023/09/26 02:44:30;;;;;;;2.53;2.33;;;21.50;56.30;;;;;;5090711;28;20248;-69
2023/09/26 02:46:56;;;;;;;2.40;1.90;;;21.50;56.30;;;;;;5091396;28;20587;-67
2023/09/26 02:49:21;;;;;;;2.40;2.20;;;21.50;56.30;;;;;;5091339;28;20176;-68
2023/09/26 02:51:47;;;;;;;2.60;2.40;;;21.50;56.30;;;;;;5091328;28;20654;-68
2023/09/26 02:54:12;;;;;;;2.60;2.40;;;21.50;56.30;;;;;;5091224;28;20193;-68
2023/09/26 02:56:38;;;;;;;2.20;2.00;;;21.50;56.40;;;;;;5091195;28;20197;-67
2023/09/26 02:59:03;;;;;;;2.27;2.00;;;21.50;56.30;;;;;;5091251;28;20165;-68
2023/09/26 03:01:29;;;;;;;2.00;1.80;;;21.50;56.30;;;;;;5091223;28;20601;-67
2023/09/26 03:03:55;;;;;;;2.13;1.90;;;21.50;56.30;;;;;;5091376;28;20196;-69
2023/09/26 03:06:21;;;;;;;2.20;2.00;;;21.50;56.30;;;;;;5089886;28;20323;-67
2023/09/26 03:08:46;;;;;;;3.20;2.50;;;21.50;56.30;;;;;;5091087;28;21314;-69
2023/09/26 03:11:12;;;;;;;2.17;1.87;;;21.50;56.30;;;;;;5091030;28;20174;-67
2023/09/26 03:13:37;;;;;;;3.07;2.77;;;21.50;56.40;;;;;;5090999;28;20216;-67
2023/09/26 03:16:04;;;;;;;2.10;2.00;;;21.50;56.30;;;;;;5091093;28;20201;-68
2023/09/26 03:18:30;;;;;;;2.23;2.07;;;21.50;56.30;;;;;;5091313;28;20169;-67
2023/09/26 03:20:56;;;;;;;2.00;1.80;;;21.50;56.30;;;;;;5091189;28;20797;-68
2023/09/26 03:23:22;;;;;;;2.37;2.17;;;21.50;56.30;;;;;;5091044;28;20186;-68
2023/09/26 03:25:48;;;;;;;2.13;1.93;;;21.50;56.30;;;;;;5091436;28;20552;-68
2023/09/26 03:28:14;;;;;;;2.27;2.07;;;21.50;56.30;;;;;;5091504;28;20399;-67
2023/09/26 03:30:41;;;;;;;2.03;1.83;;;21.50;56.30;;;;;;5091449;28;20412;-67
2023/09/26 03:33:07;;;;;;;2.30;2.10;;;21.50;56.30;;;;;;5091261;28;20510;-67
2023/09/26 03:35:33;;;;;;;2.37;2.17;;;21.50;56.30;;;;;;5091180;28;20983;-67
2023/09/26 03:37:58;;;;;;;2.13;1.90;;;21.50;56.30;;;;;;5091397;28;20204;-67
2023/09/26 03:40:24;;;;;;;2.10;1.90;;;21.50;56.30;;;;;;5091413;28;20192;-67
2023/09/26 03:42:49;;;;;;;2.10;1.90;;;21.50;56.30;;;;;;5091127;28;20193;-67
2023/09/26 03:45:15;;;;;;;1.97;1.77;;;21.50;56.30;;;;;;5091154;28;20166;-67
2023/09/26 03:47:41;;;;;;;1.97;1.80;;;21.50;56.40;;;;;;5091201;28;20201;-67
2023/09/26 03:50:08;;;;;;;2.23;2.03;;;21.50;56.40;;;;;;5091258;28;20181;-68
2023/09/26 03:52:33;;;;;;;3.10;2.00;;;21.50;56.30;;;;;;5091321;28;20201;-69
2023/09/26 03:54:59;;;;;;;2.10;1.90;;;21.50;56.40;;;;;;5091697;28;20785;-67
2023/09/26 03:57:24;;;;;;;2.73;1.70;;;21.50;56.30;;;;;;5095130;28;20194;-67
2023/09/26 03:59:50;;;;;;;1.73;1.60;;;21.50;56.40;;;;;;5095837;28;20165;-67
2023/09/26 04:02:16;;;;;;;2.20;1.90;;;21.50;56.40;;;;;;5094661;28;20298;-68
2023/09/26 04:04:41;;;;;;;1.93;1.83;;;21.50;56.40;;;;;;5094642;28;20222;-65
2023/09/26 04:07:07;;;;;;;2.17;1.93;;;21.50;56.40;;;;;;5094820;28;20480;-66
2023/09/26 04:09:34;;;;;;;4.00;2.30;;;21.50;56.40;;;;;;5094637;28;20188;-67
2023/09/26 04:12:01;;;;;;;2.40;2.20;;;21.50;56.40;;;;;;5094633;28;20185;-66
2023/09/26 04:14:27;;;;;;;2.40;2.20;;;21.50;56.40;;;;;;5094661;28;20931;-67
2023/09/26 04:16:53;;;;;;;2.10;1.80;;;21.50;56.40;;;;;;5094313;28;20500;-67
2023/09/26 04:19:18;;;;;;;2.10;1.90;;;21.50;56.40;;;;;;5094361;28;20181;-67
2023/09/26 04:21:44;;;;;;;2.30;1.80;;;21.50;56.40;;;;;;5094276;28;20162;-67
2023/09/26 04:24:10;;;;;;;1.97;1.70;;;21.50;56.40;;;;;;5094171;28;20217;-68
2023/09/26 04:26:36;;;;;;;2.33;1.90;;;21.50;56.40;;;;;;5094185;28;20439;-67
2023/09/26 04:29:02;;;;;;;2.10;1.90;;;21.50;56.40;;;;;;5094502;28;20410;-66
2023/09/26 04:31:27;;;;;;;2.63;1.90;;;21.50;56.40;;;;;;5093942;28;20248;-67
2023/09/26 04:33:53;;;;;;;2.30;2.10;;;21.50;56.40;;;;;;5094010;28;20273;-67
2023/09/26 04:36:18;;;;;;;3.10;2.10;;;21.50;56.40;;;;;;5094296;28;20197;-67
2023/09/26 04:38:45;;;;;;;2.20;2.00;;;21.50;56.40;;;;;;5094151;28;20174;-67
2023/09/26 04:41:13;;;;;;;2.23;1.80;;;21.50;56.40;;;;;;5094148;28;20169;-67
2023/09/26 04:43:39;;;;;;;2.47;1.93;;;21.50;56.40;;;;;;5093913;28;20501;-67
2023/09/26 04:46:14;;;;;;;2.93;2.20;;;21.50;56.50;;;;;;5093698;28;20835;-67
2023/09/26 04:48:41;;;;;;;2.30;2.10;;;21.50;56.40;;;;;;5093746;28;20844;-68
2023/09/26 04:51:13;;;;;;;2.87;2.20;;;21.50;56.50;;;;;;5093670;28;20418;-65
2023/09/26 04:53:39;;;;;;;5.93;1.70;;;21.50;56.50;;;;;;5093910;28;20523;-67
2023/09/26 04:56:06;;;;;;;2.10;1.90;;;21.50;56.50;;;;;;5093471;28;20964;-67
2023/09/26 04:58:32;;;;;;;2.23;1.83;;;21.50;56.50;;;;;;5093671;28;20162;-67
2023/09/26 05:01:09;;;;;;;2.37;2.17;;;21.50;56.50;;;;;;5093392;28;20490;-67
2023/09/26 05:03:35;;;;;;;3.00;1.80;;;21.50;56.50;;;;;;5093455;28;20477;-65
2023/09/26 05:06:00;;;;;;;2.37;2.10;;;21.50;56.50;;;;;;5093295;28;20920;-67
2023/09/26 05:08:26;;;;;;;2.43;1.90;;;21.50;56.50;;;;;;5092750;28;20541;-67
2023/09/26 05:10:52;;;;;;;2.60;2.40;;;21.50;56.50;;;;;;5093177;28;20166;-68
2023/09/26 05:13:18;;;;;;;3.20;2.47;;;21.50;56.50;;;;;;5093224;28;20788;-66
2023/09/26 05:15:43;;;;;;;2.13;1.93;;;21.50;56.50;;;;;;5093492;28;20514;-66
2023/09/26 05:18:09;;;;;;;2.27;1.60;;;21.40;56.50;;;;;;5093162;28;20657;-64
2023/09/26 05:20:35;;;;;;;2.80;2.00;;;21.50;56.50;;;;;;5093047;28;20661;-65
2023/09/26 05:23:03;;;;;;;2.03;1.83;;;21.50;56.60;;;;;;5093020;28;20190;-68
2023/09/26 05:25:28;;;;;;;2.67;2.43;;;21.50;56.60;;;;;;5093073;28;20430;-67
2023/09/26 05:27:54;;;;;;;2.30;2.10;;;21.50;56.60;;;;;;5093079;28;20919;-66
2023/09/26 05:30:20;;;;;;;2.67;2.30;;;21.50;56.60;;;;;;5093112;28;20176;-63
2023/09/26 05:32:45;;;;;;;2.13;1.93;;;21.50;56.60;;;;;;5093131;28;20593;-66
2023/09/26 05:35:11;;;;;;;3.97;1.90;;;21.50;56.60;;;;;;5092855;28;20174;-66
2023/09/26 05:37:38;;;;;;;2.50;2.30;;;21.50;56.60;;;;;;5092731;28;20681;-67
2023/09/26 05:40:09;;;;;;;2.20;1.97;;;21.50;56.60;;;;;;5092731;28;20489;-65
2023/09/26 05:42:36;;;;;;;2.93;2.00;;;21.50;56.60;;;;;;5093069;28;20450;-67
2023/09/26 05:45:07;;;;;;;2.73;2.07;;;21.50;56.60;;;;;;5092572;28;20515;-64
2023/09/26 05:47:32;;;;;;;1.90;1.70;;;21.50;56.60;;;;;;5092586;28;20954;-65
2023/09/26 05:49:58;;;;;;;2.37;2.17;;;21.50;56.70;;;;;;5092425;28;20408;-68
2023/09/26 05:52:24;;;;;;;2.00;1.80;;;21.50;56.60;;;;;;5092462;28;20758;-66
2023/09/26 05:54:50;;;;;;;4.73;2.10;;;21.50;56.70;;;;;;5092495;28;20174;-66
2023/09/26 05:57:15;;;;;;;2.33;1.97;;;21.50;56.70;;;;;;5092285;28;20447;-68
2023/09/26 05:59:41;;;;;;;3.40;2.27;;;21.50;56.70;;;;;;5092361;28;20255;-66
2023/09/26 06:02:11;;;;;;;2.90;2.30;;;21.50;56.70;;;;;;5092235;28;20248;-68
2023/09/26 06:04:41;;;;;;;2.60;2.40;;;21.50;56.70;;;;;;5090958;28;20248;-69
2023/09/26 06:07:08;;;;;;;2.60;2.40;;;21.50;56.70;;;;;;5092109;28;20411;-66
2023/09/26 06:09:33;;;;;;;2.00;1.80;;;21.50;56.80;;;;;;5092117;28;20416;-67
2023/09/26 06:11:59;;;;;;;2.40;2.00;;;21.50;56.80;;;;;;5092043;28;20422;-65
2023/09/26 06:14:25;;;;;;;2.47;1.70;;;21.50;56.80;;;;;;5092010;28;20230;-67
2023/09/26 06:16:51;;;;;;;1.93;1.73;;;21.50;56.80;;;;;;5092000;28;20987;-67
2023/09/26 06:19:16;;;;;;;2.20;2.00;;;21.50;56.80;;;;;;5090529;28;20427;-67
2023/09/26 06:21:42;;;;;;;2.10;1.90;;;21.50;56.80;;;;;;5092037;28;20165;-66
2023/09/26 06:24:09;;;;;;;2.30;2.10;;;21.50;56.80;;;;;;5091729;28;20186;-66
2023/09/26 06:26:35;;;;;;;2.03;1.77;;;21.50;56.80;;;;;;5091812;28;20170;-69
2023/09/26 06:29:00;;;;;;;2.20;2.00;;;21.50;56.80;;;;;;5091737;28;20518;-66
2023/09/26 06:31:26;;;;;;;2.50;1.90;;;21.50;56.80;;;;;;5091867;28;20170;-67
2023/09/26 06:33:51;;;;;;;2.73;2.20;;;21.50;56.80;;;;;;5091613;28;20540;-67
2023/09/26 06:36:21;;;;;;;3.00;1.90;;;21.50;56.90;;;;;;5091540;28;20638;-67
2023/09/26 06:38:47;;;;;;;2.73;2.53;;;21.50;56.80;;;;;;5091540;28;20166;-66
2023/09/26 06:41:13;;;;;;;2.43;1.90;;;21.50;56.80;;;;;;5091575;28;20411;-67
2023/09/26 06:43:39;;;;;;;3.30;2.13;;;21.50;56.80;;;;;;5091665;28;20435;-65
2023/09/26 06:46:06;;;;;;;2.43;2.20;;;21.50;56.80;;;;;;5091424;28;20412;-66
2023/09/26 06:48:34;;;;;;;1.63;1.53;;;21.50;56.90;;;;;;5091492;28;20174;-64
2023/09/26 06:51:04;;;;;;;2.23;1.93;;;21.50;57.50;;;;;;5086375;28;20429;-66
2023/09/26 06:53:30;;;;;;;2.33;1.90;;;21.50;56.90;;;;;;5084981;28;20435;-66
2023/09/26 06:56:07;;;;;;;2.10;1.80;;;21.50;56.90;;;;;;5090593;28;20427;-67
2023/09/26 06:58:33;;;;;;;2.20;2.00;;;21.50;56.90;;;;;;5084607;28;20412;-67
2023/09/26 07:00:59;;;;;;;2.70;1.93;;;21.50;56.90;;;;;;5070373;28;20404;-66
2023/09/26 07:03:29;;;;;;;2.27;1.97;;;21.50;56.90;;;;;;5069313;28;20561;-68
2023/09/26 07:05:56;;;;;;;2.00;1.90;;;21.50;57.50;;;;;;5070482;28;20404;-67
2023/09/26 07:08:22;;;;;;;2.00;1.80;;;21.50;57.00;;;;;;5070985;28;20944;-66
2023/09/26 07:10:49;;;;;;;3.50;1.87;;;21.50;57.00;;;;;;5070864;28;20483;-67
2023/09/26 07:13:14;;;;;;;2.50;2.13;;;21.50;57.00;;;;;;5070876;28;20435;-67
2023/09/26 07:15:40;;;;;;;2.07;1.70;;;21.50;57.00;;;;;;5070773;28;20397;-67
2023/09/26 07:18:09;;;;;;;2.53;2.07;;;21.50;57.00;;;;;;5070938;28;20202;-65
2023/09/26 07:20:55;;;;;;;2.30;1.83;;;21.50;56.90;;;;;;5070716;28;20559;-67
2023/09/26 07:23:21;;;;;;;2.37;2.17;;;21.50;57.00;;;;;;5070246;28;20536;-66
2023/09/26 07:25:47;;;;;;;2.40;1.77;;;21.50;57.00;;;;;;5071072;28;20961;-67
2023/09/26 07:28:12;;;;;;;4.03;2.20;;;21.50;57.00;;;;;;5070784;28;20174;-67
2023/09/26 07:30:38;;;;;;;2.07;1.90;;;21.50;57.00;;;;;;5070288;28;20202;-66
2023/09/26 07:33:04;;;;;;;2.20;2.00;;;21.50;57.00;;;;;;5070708;28;20193;-69
2023/09/26 07:35:30;;;;;;;2.43;1.90;;;21.50;57.00;;;;;;5070533;28;20162;-65
2023/09/26 07:37:57;;;;;;;4.63;2.47;;;21.50;57.00;;;;;;5070374;28;21018;-68
2023/09/26 07:40:23;;;;;;;2.73;1.97;;;21.50;57.10;;;;;;5070630;28;20163;-67
2023/09/26 07:42:49;;;;;;;6.40;2.33;;;21.50;57.00;;;;;;5071017;28;20849;-67
2023/09/26 07:45:16;;;;;;;6.83;2.50;;;21.50;57.00;;;;;;5069946;28;20466;-67
2023/09/26 07:47:43;;;;;;;6.23;2.50;;;21.50;57.00;;;;;;5070646;28;20170;-66
2023/09/26 07:50:09;;;;;;;4.70;2.70;;;21.50;56.90;;;;;;5070562;28;20440;-67
2023/09/26 07:52:34;;;;;;;5.17;2.60;;;21.60;56.90;;;;;;5070348;28;20991;-67
2023/09/26 07:55:00;;;;;;;2.63;2.23;;;21.60;57.00;;;;;;5069720;28;20421;-66
2023/09/26 07:57:26;;;;;;;3.17;2.10;;;21.60;57.00;;;;;;5070357;28;20272;-67
2023/09/26 07:59:51;;;;;;;2.23;2.03;;;21.60;57.00;;;;;;5070667;28;20647;-66
2023/09/26 08:02:17;;;;;;;3.50;2.17;;;21.60;57.00;;;;;;5070413;28;20265;-67
2023/09/26 08:04:42;;;;;;;3.97;2.23;;;21.60;57.00;;;;;;5070356;28;20171;-66
2023/09/26 08:07:08;;;;;;;5.13;2.30;;;21.60;57.00;;;;;;5070642;28;20216;-66
2023/09/26 08:09:33;;;;;;;3.33;2.40;;;21.60;57.00;;;;;;5070433;28;20194;-66
2023/09/26 08:11:59;;;;;;;2.87;2.20;;;21.60;57.00;;;;;;5070429;28;20175;-67
2023/09/26 08:14:25;;;;;;;4.10;2.50;;;21.60;57.00;;;;;;5070307;28;20178;-67
2023/09/26 08:16:50;;;;;;;2.60;2.10;;;21.60;57.00;;;;;;5070192;28;20198;-67
2023/09/26 08:19:16;;;;;;;2.73;2.47;;;21.60;57.00;;;;;;5070107;28;20755;-67
2023/09/26 08:21:44;;;;;;;2.57;2.00;;;21.60;57.00;;;;;;5070296;28;20388;-65
2023/09/26 08:24:10;;;;;;;3.40;1.90;;;21.60;57.00;;;;;;5070464;28;20202;-68
2023/09/26 08:26:35;;;;;;;2.93;2.30;;;21.60;57.00;;;;;;5070239;28;20416;-66
2023/09/26 08:29:01;;;;;;;2.40;2.20;;;21.60;57.00;;;;;;5070490;28;20312;-66
2023/09/26 08:31:26;;;;;;;2.20;1.90;;;21.60;57.00;;;;;;5070229;28;20552;-66
2023/09/26 08:33:53;;;;;;;2.97;2.27;;;21.60;57.00;;;;;;5070368;28;20735;-67
2023/09/26 08:36:20;;;;;;;3.83;2.10;;;21.60;57.00;;;;;;5070022;28;20689;-68
2023/09/26 08:38:50;;;;;;;5.40;2.37;;;21.60;57.00;;;;;;5069959;28;20416;-65
2023/09/26 08:41:17;;;;;;;3.30;2.23;;;21.60;57.00;;;;;;5070129;28;20409;-67
2023/09/26 08:43:44;;;;;;;2.30;1.80;;;21.60;57.00;;;;;;5073256;28;20888;-66
2023/09/26 08:46:10;;;;;;;3.53;2.40;;;21.60;57.00;;;;;;5073776;28;20419;-67
2023/09/26 08:48:37;;;;;;;4.80;2.93;;;21.60;57.00;;;;;;5073795;28;20408;-67
2023/09/26 08:51:03;;;;;;;2.80;2.23;;;21.60;57.00;;;;;;5073534;28;20416;-67
2023/09/26 08:53:29;;;;;;;3.90;2.30;;;21.60;57.00;;;;;;5073585;28;20897;-66
2023/09/26 08:55:55;;;;;;;3.20;2.07;;;21.50;56.90;;;;;;5073559;28;20169;-67
2023/09/26 08:58:21;;;;;;;2.20;1.80;;;21.60;57.00;;;;;;5071962;28;20417;-65
2023/09/26 09:00:47;;;;;;;2.47;2.27;;;21.60;57.00;;;;;;5073492;28;20197;-65
2023/09/26 09:03:13;;;;;;;3.13;2.07;;;21.60;57.00;;;;;;5071655;28;20426;-66
2023/09/26 09:05:40;;;;;;;4.07;2.33;;;21.60;57.00;;;;;;5073380;28;20404;-65
2023/09/26 09:08:15;;;;;;;3.33;2.30;;;21.60;57.00;;;;;;5074716;28;21070;-67
2023/09/26 09:10:49;;;;;;;2.33;2.07;;;21.60;57.10;;;;;;5073209;28;20487;-67
2023/09/26 09:13:26;;;;;;;2.43;1.90;;;21.60;57.10;;;;;;5072958;28;20432;-67
2023/09/26 09:15:56;;;;;;;2.33;1.97;;;21.60;57.10;;;;;;5072982;28;20397;-67
2023/09/26 09:18:31;;;;;;;2.83;2.53;;;21.60;57.10;;;;;;5072856;28;20416;-67
2023/09/26 09:20:57;;;;;;;3.60;2.00;;;21.60;57.20;;;;;;5072680;28;20431;-67
2023/09/26 09:23:22;;;;;;;3.23;2.50;;;21.60;57.20;;;;;;5072759;28;20425;-68
2023/09/26 09:25:50;;;;;;;2.97;2.10;;;21.60;57.20;;;;;;5083481;28;20182;-68
2023/09/26 09:28:20;;;;;;;2.40;2.00;;;21.60;57.20;;;;;;5081890;28;20166;-66
2023/09/26 09:30:46;;;;;;;2.17;1.97;;;21.60;57.20;;;;;;5066325;28;20420;-65
2023/09/26 09:33:14;;;;;;;3.07;2.20;;;21.60;57.20;;;;;;5081399;28;20421;-67
2023/09/26 09:35:40;;;;;;;3.00;2.40;;;21.60;57.20;;;;;;5082217;28;20170;-69
2023/09/26 09:38:12;;;;;;;3.70;1.90;;;21.60;57.20;;;;;;5082951;28;20534;-67
2023/09/26 09:40:38;;;;;;;2.97;2.03;;;21.60;57.20;;;;;;5082967;28;20400;-66
2023/09/26 09:43:04;;;;;;;1.87;1.77;;;21.60;57.20;;;;;;5079581;28;20440;-66
2023/09/26 09:45:34;;;;;;;3.23;2.23;;;21.60;57.20;;;;;;5077578;28;20916;-65
2023/09/26 09:48:03;;;;;;;2.40;2.20;;;21.60;57.10;;;;;;5072908;28;20454;-67
2023/09/26 09:50:31;;;;;;;3.67;2.73;;;21.60;57.20;;;;;;5081814;28;20418;-68
2023/09/26 09:53:03;;;;;;;2.33;2.13;;;21.60;57.20;;;;;;5082579;28;20446;-67
2023/09/26 09:55:33;;;;;;;4.10;2.33;;;21.60;57.20;;;;;;5080297;28;20407;-67
2023/09/26 09:58:02;;;;;;;3.77;2.40;;;21.60;57.20;;;;;;5082732;28;20985;-67
2023/09/26 10:00:31;;;;;;;2.90;2.60;;;21.60;57.20;;;;;;5081967;28;20409;-66
2023/09/26 10:03:00;;;;;;;3.60;2.20;;;21.60;57.20;;;;;;5090974;28;20444;-67
2023/09/26 10:05:28;;;;;;;2.80;2.60;;;21.60;57.20;;;;;;5092133;28;20408;-66
2023/09/26 10:07:55;;;;;;;3.10;2.70;;;21.60;57.20;;;;;;5090742;28;20415;-64
2023/09/26 10:10:22;;;;;;;3.93;2.27;;;21.60;57.30;;;;;;5092268;28;20778;-67
2023/09/26 10:12:48;;;;;;;2.33;2.13;;;21.60;57.30;;;;;;5091877;28;20467;-67
2023/09/26 10:15:13;;;;;;;4.00;2.43;;;21.60;57.30;;;;;;5090011;28;20450;-66
2023/09/26 10:17:45;;;;;;;3.00;2.10;;;21.60;57.30;;;;;;5091809;28;20997;-66
2023/09/26 10:20:12;;;;;;;2.47;2.27;;;21.60;57.20;;;;;;5091068;28;20194;-65
2023/09/26 10:22:43;;;;;;;3.03;2.23;;;21.60;57.30;;;;;;5091816;28;20804;-69
2023/09/26 10:25:16;;;;;;;3.20;2.83;;;21.60;57.30;;;;;;5091959;28;20490;-66
2023/09/26 10:27:47;;;;;;;3.83;2.10;;;21.60;57.30;;;;;;5091793;28;20396;-66
2023/09/26 10:30:17;;;;;;;3.37;2.10;;;21.60;57.30;;;;;;5091012;28;20775;-68
2023/09/26 10:32:44;;;;;;;4.00;2.10;;;21.60;57.30;;;;;;5091823;28;20476;-66
2023/09/26 10:35:15;;;;;;;2.73;2.10;;;21.60;57.20;;;;;;5091880;28;20411;-65
2023/09/26 10:37:48;;;;;;;3.40;2.40;;;21.60;57.10;;;;;;5091357;28;20493;-65
2023/09/26 10:40:14;;;;;;;6.37;2.27;;;21.60;57.20;;;;;;5089548;28;20411;-65
2023/09/26 10:42:42;;;;;;;2.23;2.03;;;21.60;57.20;;;;;;5091136;28;20438;-66
2023/09/26 10:45:11;;;;;;;2.63;2.30;;;21.60;57.20;;;;;;5091593;28;20781;-64
2023/09/26 10:47:39;;;;;;;2.30;2.10;;;21.70;57.40;;;;;;5091485;28;20510;-66
2023/09/26 10:50:12;;;;;;;4.57;3.80;;;21.70;57.40;;;;;;5091749;28;20412;-64
2023/09/26 10:52:41;;;;;;;3.10;2.40;;;21.70;57.40;;;;;;5091433;28;20860;-63
2023/09/26 10:55:10;;;;;;;3.23;2.40;;;21.60;57.30;;;;;;5090963;28;20420;-66
2023/09/26 10:57:37;;;;;;;2.80;2.50;;;21.70;57.40;;;;;;5091380;28;20454;-61
2023/09/26 11:00:11;;;;;;;3.10;2.40;;;21.60;57.30;;;;;;5091171;28;20824;-65
2023/09/26 11:02:37;;;;;;;2.87;2.07;;;21.60;57.30;;;;;;5090998;28;20456;-64
2023/09/26 11:05:10;;;;;;;3.73;2.50;;;21.60;57.30;;;;;;5090597;28;20958;-66
2023/09/26 11:07:37;;;;;;;2.57;2.20;;;21.70;57.30;;;;;;5091186;28;20219;-64
2023/09/26 11:10:06;;;;;;;3.63;2.63;;;21.60;57.30;;;;;;5091096;28;20498;-66
2023/09/26 11:12:32;;;;;;;3.20;2.40;;;21.60;57.30;;;;;;5090838;28;20434;-66
2023/09/26 11:15:00;;;;;;;3.10;2.47;;;21.60;57.40;;;;;;5090906;28;20404;-62
2023/09/26 11:17:27;;;;;;;3.07;2.70;;;21.70;57.50;;;;;;5090976;28;20189;-65
2023/09/26 11:19:57;;;;;;;5.97;4.70;;;21.60;57.40;;;;;;5090921;28;20434;-65
2023/09/26 11:22:23;;;;;;;26.80;15.37;;;21.60;57.40;;;;;;5091280;28;20416;-66
2023/09/26 11:24:49;;;;;;;65.40;31.90;;;21.60;57.40;;;;;;5090995;28;20533;-66
2023/09/26 11:27:15;;;;;;;78.40;40.07;;;21.60;57.40;;;;;;5090963;28;20506;-66
2023/09/26 11:29:41;;;;;;;138.77;61.23;;;21.60;57.40;;;;;;5090897;28;20464;-66
2023/09/26 11:32:06;;;;;;;175.63;78.87;;;21.60;57.40;;;;;;5090900;28;20177;-66
2023/09/26 11:34:35;;;;;;;149.23;72.70;;;21.60;57.50;;;;;;5091017;28;20245;-66
2023/09/26 11:37:00;;;;;;;166.57;82.27;;;21.60;57.50;;;;;;5090684;28;20189;-65
2023/09/26 11:39:26;;;;;;;177.07;91.90;;;21.60;57.50;;;;;;5089408;28;20416;-66
2023/09/26 11:42:07;;;;;;;197.10;87.90;;;21.60;57.50;;;;;;5090852;28;20254;-66
2023/09/26 11:44:33;;;;;;;199.40;93.87;;;21.70;57.60;;;;;;5091066;28;20520;-65
2023/09/26 11:46:59;;;;;;;188.57;90.70;;;21.60;57.60;;;;;;5090686;28;20414;-67
2023/09/26 11:49:26;;;;;;;189.07;87.53;;;21.60;57.60;;;;;;5090847;28;20646;-65
2023/09/26 11:51:52;;;;;;;178.00;90.27;;;21.60;57.70;;;;;;5089422;28;20177;-64
2023/09/26 11:54:18;;;;;;;164.10;82.87;;;21.70;57.80;;;;;;5090711;28;20907;-64
2023/09/26 11:56:45;;;;;;;194.83;86.57;;;21.70;57.80;;;;;;5090610;28;20493;-65
2023/09/26 11:59:11;;;;;;;171.27;83.70;;;21.60;58.30;;;;;;5090649;28;20173;-67
2023/09/26 12:01:41;;;;;;;155.13;82.03;;;21.70;57.90;;;;;;5090717;28;20782;-66
2023/09/26 12:04:09;;;;;;;163.47;76.73;;;21.70;57.90;;;;;;5090592;28;20433;-65
2023/09/26 12:06:35;;;;;;;158.43;79.93;;;21.70;58.00;;;;;;5090060;28;20774;-66
2023/09/26 12:09:03;;;;;;;130.17;66.13;;;21.70;58.10;;;;;;5090232;28;20407;-63
2023/09/26 12:11:29;;;;;;;129.93;65.67;;;21.70;58.10;;;;;;5090658;28;20170;-66
2023/09/26 12:13:55;;;;;;;128.43;59.60;;;21.70;58.10;;;;;;5089684;28;20434;-67
2023/09/26 12:16:20;;;;;;;130.57;62.20;;;21.70;58.20;;;;;;5090108;28;20254;-66
2023/09/26 12:18:46;;;;;;;128.53;59.00;;;21.70;58.20;;;;;;5092628;28;20253;-65
2023/09/26 12:21:12;;;;;;;117.37;57.50;;;21.70;58.20;;;;;;5092920;28;20211;-66
2023/09/26 12:23:38;;;;;;;115.90;55.37;;;21.70;58.30;;;;;;5092848;28;20193;-66
2023/09/26 12:26:03;;;;;;;115.90;54.03;;;21.70;58.20;;;;;;5092746;28;20233;-66
2023/09/26 12:28:29;;;;;;;104.63;49.07;;;21.70;58.20;;;;;;5092451;28;20512;-66
2023/09/26 12:30:55;;;;;;;94.10;48.03;;;21.70;58.20;;;;;;5093141;28;20517;-65
2023/09/26 12:33:21;;;;;;;96.03;46.73;;;21.70;58.30;;;;;;5094226;28;20741;-66
2023/09/26 12:35:46;;;;;;;85.63;41.47;;;21.70;58.30;;;;;;5094208;28;20253;-67
2023/09/26 12:38:12;;;;;;;76.47;40.50;;;21.70;58.30;;;;;;5094233;28;20535;-65
2023/09/26 12:40:38;;;;;;;70.40;38.47;;;21.70;58.30;;;;;;5094081;28;20227;-67